sensor_id;sensor_type;location;lat;lon;timestamp;P1;durP1;ratioP1;P2;durP2;ratioP2
30133;SDS011;16946;49.984;10.672;2022-08-19T00:00:25;31.20;;;28.23;;
30133;SDS011;16946;49.984;10.672;2022-08-19T00:00:55;32.57;;;29.37;;
30133;SDS011;16946;49.984;10.672;2022-08-19T00:01:26;31.97;;;28.83;;
30133;SDS011;16946;49.984;10.672;2022-08-19T00:01:59;31.38;;;28.30;;
30133;SDS011;16946;49.984;10.672;2022-08-19T00:02:29;30.63;;;27.47;;
30133;SDS011;16946;49.984;10.672;2022-08-19T00:03:00;28.40;;;25.60;;
30133;SDS011;16946;49.984;10.672;2022-08-19T00:03:30;31.43;;;28.43;;
30133;SDS011;16946;49.984;10.672;2022-08-19T00:04:02;30.93;;;27.97;;
30133;SDS011;16946;49.984;10.672;2022-08-19T00:04:35;28.13;;;25.33;;
30133;SDS011;16946;49.984;10.672;2022-08-19T00:05:07;27.60;;;25.10;;
30133;SDS011;16946;49.984;10.672;2022-08-19T00:05:38;28.55;;;25.75;;
30133;SDS011;16946;49.984;10.672;2022-08-19T00:06:11;30.05;;;27.27;;
30133;SDS011;16946;49.984;10.672;2022-08-19T00:06:43;30.07;;;27.20;;
30133;SDS011;16946;49.984;10.672;2022-08-19T00:07:14;29.13;;;26.23;;
30133;SDS011;16946;49.984;10.672;2022-08-19T00:07:45;28.87;;;25.93;;
30133;SDS011;16946;49.984;10.672;2022-08-19T00:08:16;27.03;;;24.47;;
30133;SDS011;16946;49.984;10.672;2022-08-19T00:08:46;26.30;;;23.90;;
30133;SDS011;16946;49.984;10.672;2022-08-19T00:09:17;27.97;;;25.30;;
30133;SDS011;16946;49.984;10.672;2022-08-19T00:09:49;29.08;;;26.20;;
30133;SDS011;16946;49.984;10.672;2022-08-19T00:10:20;28.77;;;25.97;;
30133;SDS011;16946;49.984;10.672;2022-08-19T00:10:51;26.93;;;24.43;;
30133;SDS011;16946;49.984;10.672;2022-08-19T00:11:22;29.88;;;26.90;;
30133;SDS011;16946;49.984;10.672;2022-08-19T00:11:53;27.97;;;25.33;;
30133;SDS011;16946;49.984;10.672;2022-08-19T00:12:25;28.17;;;25.55;;
30133;SDS011;16946;49.984;10.672;2022-08-19T00:12:56;27.83;;;25.15;;
30133;SDS011;16946;49.984;10.672;2022-08-19T00:13:27;26.67;;;24.07;;
30133;SDS011;16946;49.984;10.672;2022-08-19T00:13:58;28.58;;;25.52;;
30133;SDS011;16946;49.984;10.672;2022-08-19T00:14:29;28.77;;;26.07;;
30133;SDS011;16946;49.984;10.672;2022-08-19T00:15:03;26.70;;;24.20;;
30133;SDS011;16946;49.984;10.672;2022-08-19T00:15:41;28.75;;;25.88;;
30133;SDS011;16946;49.984;10.672;2022-08-19T00:16:14;26.80;;;24.13;;
30133;SDS011;16946;49.984;10.672;2022-08-19T00:16:47;27.70;;;24.90;;
30133;SDS011;16946;49.984;10.672;2022-08-19T00:17:19;27.88;;;25.08;;
30133;SDS011;16946;49.984;10.672;2022-08-19T00:17:50;28.92;;;26.13;;
30133;SDS011;16946;49.984;10.672;2022-08-19T00:18:21;27.00;;;24.50;;
30133;SDS011;16946;49.984;10.672;2022-08-19T00:18:51;27.00;;;24.40;;
30133;SDS011;16946;49.984;10.672;2022-08-19T00:19:23;28.67;;;25.88;;
30133;SDS011;16946;49.984;10.672;2022-08-19T00:19:53;27.60;;;24.90;;
30133;SDS011;16946;49.984;10.672;2022-08-19T00:20:24;26.53;;;24.03;;
30133;SDS011;16946;49.984;10.672;2022-08-19T00:20:55;26.30;;;23.88;;
30133;SDS011;16946;49.984;10.672;2022-08-19T00:21:26;27.20;;;24.50;;
30133;SDS011;16946;49.984;10.672;2022-08-19T00:21:57;27.48;;;24.85;;
30133;SDS011;16946;49.984;10.672;2022-08-19T00:22:28;27.17;;;24.67;;
30133;SDS011;16946;49.984;10.672;2022-08-19T00:22:58;28.93;;;26.33;;
30133;SDS011;16946;49.984;10.672;2022-08-19T00:23:29;29.47;;;26.67;;
30133;SDS011;16946;49.984;10.672;2022-08-19T00:24:00;30.17;;;27.37;;
30133;SDS011;16946;49.984;10.672;2022-08-19T00:24:31;33.73;;;30.43;;
30133;SDS011;16946;49.984;10.672;2022-08-19T00:25:02;31.60;;;28.50;;
30133;SDS011;16946;49.984;10.672;2022-08-19T00:25:33;33.90;;;30.63;;
30133;SDS011;16946;49.984;10.672;2022-08-19T00:26:04;35.40;;;31.87;;
30133;SDS011;16946;49.984;10.672;2022-08-19T00:26:36;34.75;;;31.45;;
30133;SDS011;16946;49.984;10.672;2022-08-19T00:27:07;31.65;;;28.52;;
30133;SDS011;16946;49.984;10.672;2022-08-19T00:27:37;32.40;;;29.10;;
30133;SDS011;16946;49.984;10.672;2022-08-19T00:28:08;35.43;;;31.93;;
30133;SDS011;16946;49.984;10.672;2022-08-19T00:28:38;32.57;;;29.27;;
30133;SDS011;16946;49.984;10.672;2022-08-19T00:29:10;31.53;;;28.53;;
30133;SDS011;16946;49.984;10.672;2022-08-19T00:29:43;29.92;;;26.92;;
30133;SDS011;16946;49.984;10.672;2022-08-19T00:30:13;30.20;;;27.27;;
30133;SDS011;16946;49.984;10.672;2022-08-19T00:30:44;29.80;;;27.10;;
30133;SDS011;16946;49.984;10.672;2022-08-19T00:31:15;31.00;;;27.90;;
30133;SDS011;16946;49.984;10.672;2022-08-19T00:31:46;31.45;;;28.65;;
30133;SDS011;16946;49.984;10.672;2022-08-19T00:32:16;29.50;;;26.77;;
30133;SDS011;16946;49.984;10.672;2022-08-19T00:32:47;29.43;;;26.80;;
30133;SDS011;16946;49.984;10.672;2022-08-19T00:33:17;28.83;;;26.23;;
30133;SDS011;16946;49.984;10.672;2022-08-19T00:33:48;30.47;;;27.57;;
30133;SDS011;16946;49.984;10.672;2022-08-19T00:34:20;29.20;;;26.42;;
30133;SDS011;16946;49.984;10.672;2022-08-19T00:34:52;29.23;;;26.25;;
30133;SDS011;16946;49.984;10.672;2022-08-19T00:35:23;29.85;;;27.05;;
30133;SDS011;16946;49.984;10.672;2022-08-19T00:35:54;30.13;;;27.30;;
30133;SDS011;16946;49.984;10.672;2022-08-19T00:36:25;29.88;;;27.13;;
30133;SDS011;16946;49.984;10.672;2022-08-19T00:36:56;28.07;;;25.30;;
30133;SDS011;16946;49.984;10.672;2022-08-19T00:37:27;28.55;;;25.83;;
30133;SDS011;16946;49.984;10.672;2022-08-19T00:37:58;29.88;;;26.77;;
30133;SDS011;16946;49.984;10.672;2022-08-19T00:38:29;29.00;;;26.25;;
30133;SDS011;16946;49.984;10.672;2022-08-19T00:39:00;29.70;;;26.80;;
30133;SDS011;16946;49.984;10.672;2022-08-19T00:39:31;27.63;;;24.88;;
30133;SDS011;16946;49.984;10.672;2022-08-19T00:40:02;28.23;;;25.57;;
30133;SDS011;16946;49.984;10.672;2022-08-19T00:40:34;27.25;;;24.55;;
30133;SDS011;16946;49.984;10.672;2022-08-19T00:41:05;26.40;;;23.90;;
30133;SDS011;16946;49.984;10.672;2022-08-19T00:41:36;27.02;;;24.45;;
30133;SDS011;16946;49.984;10.672;2022-08-19T00:42:06;26.87;;;24.07;;
30133;SDS011;16946;49.984;10.672;2022-08-19T00:42:37;28.40;;;25.70;;
30133;SDS011;16946;49.984;10.672;2022-08-19T00:43:10;29.20;;;26.33;;
30133;SDS011;16946;49.984;10.672;2022-08-19T00:43:41;28.25;;;25.55;;
30133;SDS011;16946;49.984;10.672;2022-08-19T00:44:12;29.27;;;26.37;;
30133;SDS011;16946;49.984;10.672;2022-08-19T00:44:46;33.17;;;30.10;;
30133;SDS011;16946;49.984;10.672;2022-08-19T00:45:17;32.17;;;29.17;;
30133;SDS011;16946;49.984;10.672;2022-08-19T00:45:50;29.83;;;26.98;;
30133;SDS011;16946;49.984;10.672;2022-08-19T00:46:21;31.83;;;28.65;;
30133;SDS011;16946;49.984;10.672;2022-08-19T00:46:52;29.53;;;26.73;;
30133;SDS011;16946;49.984;10.672;2022-08-19T00:47:24;29.67;;;26.80;;
30133;SDS011;16946;49.984;10.672;2022-08-19T00:47:54;32.90;;;29.60;;
30133;SDS011;16946;49.984;10.672;2022-08-19T00:48:25;32.27;;;29.17;;
30133;SDS011;16946;49.984;10.672;2022-08-19T00:48:56;30.23;;;27.30;;
30133;SDS011;16946;49.984;10.672;2022-08-19T00:49:29;29.35;;;26.48;;
30133;SDS011;16946;49.984;10.672;2022-08-19T00:50:04;31.83;;;28.73;;
30133;SDS011;16946;49.984;10.672;2022-08-19T00:50:39;31.27;;;28.20;;
30133;SDS011;16946;49.984;10.672;2022-08-19T00:51:12;30.15;;;27.05;;
30133;SDS011;16946;49.984;10.672;2022-08-19T00:51:44;32.33;;;29.13;;
30133;SDS011;16946;49.984;10.672;2022-08-19T00:52:27;31.08;;;27.98;;
30133;SDS011;16946;49.984;10.672;2022-08-19T00:53:01;32.75;;;29.42;;
30133;SDS011;16946;49.984;10.672;2022-08-19T00:53:34;32.72;;;29.52;;
30133;SDS011;16946;49.984;10.672;2022-08-19T00:54:04;30.30;;;27.47;;
30133;SDS011;16946;49.984;10.672;2022-08-19T00:54:36;30.27;;;27.50;;
30133;SDS011;16946;49.984;10.672;2022-08-19T00:55:09;30.92;;;27.92;;
30133;SDS011;16946;49.984;10.672;2022-08-19T00:55:40;29.10;;;26.38;;
30133;SDS011;16946;49.984;10.672;2022-08-19T00:56:14;28.05;;;25.48;;
30133;SDS011;16946;49.984;10.672;2022-08-19T00:56:45;29.83;;;27.00;;
30133;SDS011;16946;49.984;10.672;2022-08-19T00:57:17;28.00;;;25.40;;
30133;SDS011;16946;49.984;10.672;2022-08-19T00:57:53;27.08;;;24.58;;
30133;SDS011;16946;49.984;10.672;2022-08-19T00:58:29;31.05;;;27.95;;
30133;SDS011;16946;49.984;10.672;2022-08-19T00:59:02;30.13;;;27.38;;
30133;SDS011;16946;49.984;10.672;2022-08-19T00:59:39;28.60;;;25.80;;
30133;SDS011;16946;49.984;10.672;2022-08-19T01:00:13;28.73;;;25.95;;
30133;SDS011;16946;49.984;10.672;2022-08-19T01:00:46;29.88;;;27.10;;
30133;SDS011;16946;49.984;10.672;2022-08-19T01:01:17;30.35;;;27.48;;
30133;SDS011;16946;49.984;10.672;2022-08-19T01:01:48;29.70;;;26.80;;
30133;SDS011;16946;49.984;10.672;2022-08-19T01:02:19;30.00;;;27.20;;
30133;SDS011;16946;49.984;10.672;2022-08-19T01:02:50;29.52;;;26.55;;
30133;SDS011;16946;49.984;10.672;2022-08-19T01:03:22;32.38;;;29.20;;
30133;SDS011;16946;49.984;10.672;2022-08-19T01:03:53;30.67;;;27.75;;
30133;SDS011;16946;49.984;10.672;2022-08-19T01:04:23;33.30;;;29.83;;
30133;SDS011;16946;49.984;10.672;2022-08-19T01:04:54;31.60;;;28.50;;
30133;SDS011;16946;49.984;10.672;2022-08-19T01:05:26;31.40;;;28.23;;
30133;SDS011;16946;49.984;10.672;2022-08-19T01:05:59;31.13;;;28.13;;
30133;SDS011;16946;49.984;10.672;2022-08-19T01:06:30;31.10;;;28.05;;
30133;SDS011;16946;49.984;10.672;2022-08-19T01:07:02;31.58;;;28.50;;
30133;SDS011;16946;49.984;10.672;2022-08-19T01:07:33;31.90;;;28.73;;
30133;SDS011;16946;49.984;10.672;2022-08-19T01:08:05;32.70;;;29.50;;
30133;SDS011;16946;49.984;10.672;2022-08-19T01:08:37;30.95;;;27.95;;
30133;SDS011;16946;49.984;10.672;2022-08-19T01:09:07;31.00;;;28.00;;
30133;SDS011;16946;49.984;10.672;2022-08-19T01:09:38;31.77;;;28.58;;
30133;SDS011;16946;49.984;10.672;2022-08-19T01:10:10;29.43;;;26.53;;
30133;SDS011;16946;49.984;10.672;2022-08-19T01:10:50;29.67;;;26.77;;
30133;SDS011;16946;49.984;10.672;2022-08-19T01:11:24;29.00;;;26.40;;
30133;SDS011;16946;49.984;10.672;2022-08-19T01:11:56;28.38;;;25.67;;
30133;SDS011;16946;49.984;10.672;2022-08-19T01:12:27;29.40;;;26.50;;
30133;SDS011;16946;49.984;10.672;2022-08-19T01:12:58;28.23;;;25.43;;
30133;SDS011;16946;49.984;10.672;2022-08-19T01:13:32;29.00;;;26.20;;
30133;SDS011;16946;49.984;10.672;2022-08-19T01:14:03;27.88;;;25.30;;
30133;SDS011;16946;49.984;10.672;2022-08-19T01:14:35;28.55;;;25.80;;
30133;SDS011;16946;49.984;10.672;2022-08-19T01:15:10;29.98;;;27.15;;
30133;SDS011;16946;49.984;10.672;2022-08-19T01:15:43;29.50;;;26.80;;
30133;SDS011;16946;49.984;10.672;2022-08-19T01:16:20;29.48;;;26.55;;
30133;SDS011;16946;49.984;10.672;2022-08-19T01:16:53;29.23;;;26.27;;
30133;SDS011;16946;49.984;10.672;2022-08-19T01:17:27;28.75;;;26.05;;
30133;SDS011;16946;49.984;10.672;2022-08-19T01:17:59;28.50;;;25.90;;
30133;SDS011;16946;49.984;10.672;2022-08-19T01:18:35;28.48;;;25.77;;
30133;SDS011;16946;49.984;10.672;2022-08-19T01:19:12;26.20;;;23.70;;
30133;SDS011;16946;49.984;10.672;2022-08-19T01:19:52;28.67;;;25.95;;
30133;SDS011;16946;49.984;10.672;2022-08-19T01:20:23;29.13;;;26.30;;
30133;SDS011;16946;49.984;10.672;2022-08-19T01:20:55;28.42;;;25.70;;
30133;SDS011;16946;49.984;10.672;2022-08-19T01:21:32;30.48;;;27.40;;
30133;SDS011;16946;49.984;10.672;2022-08-19T01:22:14;29.65;;;26.75;;
30133;SDS011;16946;49.984;10.672;2022-08-19T01:22:56;31.45;;;28.38;;
30133;SDS011;16946;49.984;10.672;2022-08-19T01:23:28;33.92;;;30.58;;
30133;SDS011;16946;49.984;10.672;2022-08-19T01:24:12;30.83;;;27.83;;
30133;SDS011;16946;49.984;10.672;2022-08-19T01:24:43;32.27;;;29.23;;
30133;SDS011;16946;49.984;10.672;2022-08-19T01:25:14;28.33;;;25.73;;
30133;SDS011;16946;49.984;10.672;2022-08-19T01:25:50;30.35;;;27.60;;
30133;SDS011;16946;49.984;10.672;2022-08-19T01:26:23;29.08;;;26.23;;
30133;SDS011;16946;49.984;10.672;2022-08-19T01:26:54;29.67;;;26.85;;
30133;SDS011;16946;49.984;10.672;2022-08-19T01:27:25;29.07;;;26.33;;
30133;SDS011;16946;49.984;10.672;2022-08-19T01:27:55;30.03;;;27.13;;
30133;SDS011;16946;49.984;10.672;2022-08-19T01:28:26;31.27;;;28.37;;
30133;SDS011;16946;49.984;10.672;2022-08-19T01:28:58;28.48;;;25.48;;
30133;SDS011;16946;49.984;10.672;2022-08-19T01:29:31;29.73;;;26.83;;
30133;SDS011;16946;49.984;10.672;2022-08-19T01:30:02;28.95;;;26.23;;
30133;SDS011;16946;49.984;10.672;2022-08-19T01:30:34;28.38;;;25.52;;
30133;SDS011;16946;49.984;10.672;2022-08-19T01:31:08;30.10;;;27.30;;
30133;SDS011;16946;49.984;10.672;2022-08-19T01:31:44;29.67;;;26.65;;
30133;SDS011;16946;49.984;10.672;2022-08-19T01:32:15;28.77;;;25.97;;
30133;SDS011;16946;49.984;10.672;2022-08-19T01:32:47;32.17;;;29.08;;
30133;SDS011;16946;49.984;10.672;2022-08-19T01:33:18;30.67;;;27.60;;
30133;SDS011;16946;49.984;10.672;2022-08-19T01:33:49;30.40;;;27.40;;
30133;SDS011;16946;49.984;10.672;2022-08-19T01:34:21;28.17;;;25.50;;
30133;SDS011;16946;49.984;10.672;2022-08-19T01:34:52;30.63;;;27.63;;
30133;SDS011;16946;49.984;10.672;2022-08-19T01:35:23;29.53;;;26.67;;
30133;SDS011;16946;49.984;10.672;2022-08-19T01:36:02;31.55;;;28.52;;
30133;SDS011;16946;49.984;10.672;2022-08-19T01:36:46;32.50;;;29.30;;
30133;SDS011;16946;49.984;10.672;2022-08-19T01:37:19;32.70;;;29.40;;
30133;SDS011;16946;49.984;10.672;2022-08-19T01:38:24;29.27;;;26.43;;
30133;SDS011;16946;49.984;10.672;2022-08-19T01:38:56;30.33;;;27.40;;
30133;SDS011;16946;49.984;10.672;2022-08-19T01:39:28;29.50;;;26.65;;
30133;SDS011;16946;49.984;10.672;2022-08-19T01:39:58;31.90;;;28.70;;
30133;SDS011;16946;49.984;10.672;2022-08-19T01:40:30;32.20;;;28.93;;
30133;SDS011;16946;49.984;10.672;2022-08-19T01:41:02;32.17;;;29.00;;
30133;SDS011;16946;49.984;10.672;2022-08-19T01:41:33;32.47;;;29.00;;
30133;SDS011;16946;49.984;10.672;2022-08-19T01:42:04;33.33;;;30.23;;
30133;SDS011;16946;49.984;10.672;2022-08-19T01:42:37;33.08;;;29.92;;
30133;SDS011;16946;49.984;10.672;2022-08-19T01:43:07;33.90;;;30.57;;
30133;SDS011;16946;49.984;10.672;2022-08-19T01:43:38;31.40;;;28.30;;
30133;SDS011;16946;49.984;10.672;2022-08-19T01:44:09;33.10;;;29.83;;
30133;SDS011;16946;49.984;10.672;2022-08-19T01:44:41;32.40;;;29.20;;
30133;SDS011;16946;49.984;10.672;2022-08-19T01:45:11;32.83;;;29.60;;
30133;SDS011;16946;49.984;10.672;2022-08-19T01:45:42;29.87;;;27.03;;
30133;SDS011;16946;49.984;10.672;2022-08-19T01:46:12;29.90;;;26.93;;
30133;SDS011;16946;49.984;10.672;2022-08-19T01:46:43;28.53;;;25.97;;
30133;SDS011;16946;49.984;10.672;2022-08-19T01:47:14;30.20;;;27.23;;
30133;SDS011;16946;49.984;10.672;2022-08-19T01:47:46;30.13;;;27.17;;
30133;SDS011;16946;49.984;10.672;2022-08-19T01:48:17;32.33;;;29.15;;
30133;SDS011;16946;49.984;10.672;2022-08-19T01:48:47;31.20;;;28.10;;
30133;SDS011;16946;49.984;10.672;2022-08-19T01:49:19;30.27;;;27.33;;
30133;SDS011;16946;49.984;10.672;2022-08-19T01:49:51;28.27;;;25.48;;
30133;SDS011;16946;49.984;10.672;2022-08-19T01:50:22;28.43;;;25.70;;
30133;SDS011;16946;49.984;10.672;2022-08-19T01:50:53;28.63;;;25.73;;
30133;SDS011;16946;49.984;10.672;2022-08-19T01:51:23;30.07;;;27.07;;
30133;SDS011;16946;49.984;10.672;2022-08-19T01:51:54;28.67;;;25.83;;
30133;SDS011;16946;49.984;10.672;2022-08-19T01:52:24;28.70;;;25.60;;
30133;SDS011;16946;49.984;10.672;2022-08-19T01:52:55;28.80;;;25.90;;
30133;SDS011;16946;49.984;10.672;2022-08-19T01:53:26;27.20;;;24.60;;
30133;SDS011;16946;49.984;10.672;2022-08-19T01:53:56;29.90;;;26.93;;
30133;SDS011;16946;49.984;10.672;2022-08-19T01:54:27;27.50;;;24.93;;
30133;SDS011;16946;49.984;10.672;2022-08-19T01:54:58;29.05;;;26.25;;
30133;SDS011;16946;49.984;10.672;2022-08-19T01:55:29;29.20;;;26.30;;
30133;SDS011;16946;49.984;10.672;2022-08-19T01:55:59;28.57;;;25.87;;
30133;SDS011;16946;49.984;10.672;2022-08-19T01:56:30;29.20;;;26.10;;
30133;SDS011;16946;49.984;10.672;2022-08-19T01:57:03;27.80;;;25.20;;
30133;SDS011;16946;49.984;10.672;2022-08-19T01:57:37;29.83;;;26.92;;
30133;SDS011;16946;49.984;10.672;2022-08-19T01:58:15;29.30;;;26.40;;
30133;SDS011;16946;49.984;10.672;2022-08-19T01:58:54;27.80;;;25.10;;
30133;SDS011;16946;49.984;10.672;2022-08-19T01:59:30;28.33;;;25.55;;
30133;SDS011;16946;49.984;10.672;2022-08-19T02:00:04;29.70;;;26.63;;
30133;SDS011;16946;49.984;10.672;2022-08-19T02:00:37;29.77;;;26.77;;
30133;SDS011;16946;49.984;10.672;2022-08-19T02:01:08;30.53;;;27.63;;
30133;SDS011;16946;49.984;10.672;2022-08-19T02:01:38;32.63;;;29.43;;
30133;SDS011;16946;49.984;10.672;2022-08-19T02:02:09;31.47;;;28.57;;
30133;SDS011;16946;49.984;10.672;2022-08-19T02:02:40;30.73;;;27.67;;
30133;SDS011;16946;49.984;10.672;2022-08-19T02:03:11;29.77;;;26.87;;
30133;SDS011;16946;49.984;10.672;2022-08-19T02:03:42;31.20;;;28.20;;
30133;SDS011;16946;49.984;10.672;2022-08-19T02:04:12;32.60;;;29.40;;
30133;SDS011;16946;49.984;10.672;2022-08-19T02:04:43;31.03;;;27.93;;
30133;SDS011;16946;49.984;10.672;2022-08-19T02:05:15;29.00;;;26.20;;
30133;SDS011;16946;49.984;10.672;2022-08-19T02:05:48;30.17;;;27.38;;
30133;SDS011;16946;49.984;10.672;2022-08-19T02:06:23;29.33;;;26.42;;
30133;SDS011;16946;49.984;10.672;2022-08-19T02:06:53;30.67;;;27.80;;
30133;SDS011;16946;49.984;10.672;2022-08-19T02:07:24;30.10;;;27.10;;
30133;SDS011;16946;49.984;10.672;2022-08-19T02:07:57;29.33;;;26.47;;
30133;SDS011;16946;49.984;10.672;2022-08-19T02:08:29;29.23;;;26.23;;
30133;SDS011;16946;49.984;10.672;2022-08-19T02:09:01;28.80;;;25.85;;
30133;SDS011;16946;49.984;10.672;2022-08-19T02:09:33;30.77;;;27.58;;
30133;SDS011;16946;49.984;10.672;2022-08-19T02:10:05;28.73;;;25.92;;
30133;SDS011;16946;49.984;10.672;2022-08-19T02:10:42;30.42;;;27.42;;
30133;SDS011;16946;49.984;10.672;2022-08-19T02:11:21;29.85;;;26.80;;
30133;SDS011;16946;49.984;10.672;2022-08-19T02:11:56;28.60;;;25.80;;
30133;SDS011;16946;49.984;10.672;2022-08-19T02:12:26;29.90;;;26.70;;
30133;SDS011;16946;49.984;10.672;2022-08-19T02:12:57;29.73;;;26.90;;
30133;SDS011;16946;49.984;10.672;2022-08-19T02:13:28;27.40;;;24.67;;
30133;SDS011;16946;49.984;10.672;2022-08-19T02:14:00;30.17;;;27.23;;
30133;SDS011;16946;49.984;10.672;2022-08-19T02:14:33;29.83;;;26.85;;
30133;SDS011;16946;49.984;10.672;2022-08-19T02:15:05;30.30;;;27.25;;
30133;SDS011;16946;49.984;10.672;2022-08-19T02:15:36;29.48;;;26.45;;
30133;SDS011;16946;49.984;10.672;2022-08-19T02:16:07;29.67;;;26.50;;
30133;SDS011;16946;49.984;10.672;2022-08-19T02:16:37;28.47;;;25.57;;
30133;SDS011;16946;49.984;10.672;2022-08-19T02:17:09;27.35;;;24.63;;
30133;SDS011;16946;49.984;10.672;2022-08-19T02:17:40;28.67;;;25.87;;
30133;SDS011;16946;49.984;10.672;2022-08-19T02:18:11;26.40;;;23.70;;
30133;SDS011;16946;49.984;10.672;2022-08-19T02:18:42;29.25;;;26.30;;
30133;SDS011;16946;49.984;10.672;2022-08-19T02:19:12;28.40;;;25.47;;
30133;SDS011;16946;49.984;10.672;2022-08-19T02:19:43;26.87;;;23.97;;
30133;SDS011;16946;49.984;10.672;2022-08-19T02:20:14;28.20;;;25.47;;
30133;SDS011;16946;49.984;10.672;2022-08-19T02:20:45;29.85;;;27.05;;
30133;SDS011;16946;49.984;10.672;2022-08-19T02:21:18;29.35;;;26.40;;
30133;SDS011;16946;49.984;10.672;2022-08-19T02:21:50;27.65;;;24.83;;
30133;SDS011;16946;49.984;10.672;2022-08-19T02:22:20;28.73;;;25.93;;
30133;SDS011;16946;49.984;10.672;2022-08-19T02:22:51;28.80;;;26.00;;
30133;SDS011;16946;49.984;10.672;2022-08-19T02:23:22;28.70;;;25.80;;
30133;SDS011;16946;49.984;10.672;2022-08-19T02:23:52;28.67;;;25.77;;
30133;SDS011;16946;49.984;10.672;2022-08-19T02:24:23;29.57;;;26.53;;
30133;SDS011;16946;49.984;10.672;2022-08-19T02:24:54;29.53;;;26.57;;
30133;SDS011;16946;49.984;10.672;2022-08-19T02:25:25;27.33;;;24.52;;
30133;SDS011;16946;49.984;10.672;2022-08-19T02:25:56;29.93;;;26.70;;
30133;SDS011;16946;49.984;10.672;2022-08-19T02:26:26;31.87;;;28.57;;
30133;SDS011;16946;49.984;10.672;2022-08-19T02:26:57;28.77;;;26.07;;
30133;SDS011;16946;49.984;10.672;2022-08-19T02:27:28;27.25;;;24.60;;
30133;SDS011;16946;49.984;10.672;2022-08-19T02:27:59;26.47;;;23.77;;
30133;SDS011;16946;49.984;10.672;2022-08-19T02:28:29;26.93;;;24.33;;
30133;SDS011;16946;49.984;10.672;2022-08-19T02:29:00;27.17;;;24.27;;
30133;SDS011;16946;49.984;10.672;2022-08-19T02:29:30;26.37;;;23.80;;
30133;SDS011;16946;49.984;10.672;2022-08-19T02:30:04;28.20;;;25.50;;
30133;SDS011;16946;49.984;10.672;2022-08-19T02:30:36;27.35;;;24.60;;
30133;SDS011;16946;49.984;10.672;2022-08-19T02:31:12;28.00;;;25.00;;
30133;SDS011;16946;49.984;10.672;2022-08-19T02:31:45;26.73;;;23.83;;
30133;SDS011;16946;49.984;10.672;2022-08-19T02:32:16;28.80;;;25.80;;
30133;SDS011;16946;49.984;10.672;2022-08-19T02:32:49;27.90;;;25.05;;
30133;SDS011;16946;49.984;10.672;2022-08-19T02:33:20;27.27;;;24.58;;
30133;SDS011;16946;49.984;10.672;2022-08-19T02:33:51;26.27;;;23.53;;
30133;SDS011;16946;49.984;10.672;2022-08-19T02:34:23;26.48;;;23.77;;
30133;SDS011;16946;49.984;10.672;2022-08-19T02:34:54;27.60;;;24.63;;
30133;SDS011;16946;49.984;10.672;2022-08-19T02:35:25;27.30;;;24.63;;
30133;SDS011;16946;49.984;10.672;2022-08-19T02:35:56;27.70;;;24.93;;
30133;SDS011;16946;49.984;10.672;2022-08-19T02:36:26;26.83;;;24.13;;
30133;SDS011;16946;49.984;10.672;2022-08-19T02:36:57;27.98;;;25.33;;
30133;SDS011;16946;49.984;10.672;2022-08-19T02:37:28;28.83;;;26.07;;
30133;SDS011;16946;49.984;10.672;2022-08-19T02:38:17;27.83;;;25.00;;
30133;SDS011;16946;49.984;10.672;2022-08-19T02:38:57;28.10;;;25.30;;
30133;SDS011;16946;49.984;10.672;2022-08-19T02:39:27;28.83;;;25.87;;
30133;SDS011;16946;49.984;10.672;2022-08-19T02:39:58;26.53;;;23.70;;
30133;SDS011;16946;49.984;10.672;2022-08-19T02:40:29;26.73;;;24.13;;
30133;SDS011;16946;49.984;10.672;2022-08-19T02:41:05;27.40;;;24.60;;
30133;SDS011;16946;49.984;10.672;2022-08-19T02:41:46;27.30;;;24.63;;
30133;SDS011;16946;49.984;10.672;2022-08-19T02:42:17;25.40;;;22.80;;
30133;SDS011;16946;49.984;10.672;2022-08-19T02:42:47;25.73;;;23.20;;
30133;SDS011;16946;49.984;10.672;2022-08-19T02:43:18;27.20;;;24.50;;
30133;SDS011;16946;49.984;10.672;2022-08-19T02:43:50;27.05;;;24.23;;
30133;SDS011;16946;49.984;10.672;2022-08-19T02:44:20;26.43;;;23.83;;
30133;SDS011;16946;49.984;10.672;2022-08-19T02:44:51;25.87;;;23.13;;
30133;SDS011;16946;49.984;10.672;2022-08-19T02:45:21;26.30;;;23.70;;
30133;SDS011;16946;49.984;10.672;2022-08-19T02:45:52;27.30;;;24.40;;
30133;SDS011;16946;49.984;10.672;2022-08-19T02:46:25;28.80;;;25.83;;
30133;SDS011;16946;49.984;10.672;2022-08-19T02:46:58;26.85;;;24.10;;
30133;SDS011;16946;49.984;10.672;2022-08-19T02:47:29;26.83;;;24.13;;
30133;SDS011;16946;49.984;10.672;2022-08-19T02:47:59;29.00;;;25.90;;
30133;SDS011;16946;49.984;10.672;2022-08-19T02:48:30;26.43;;;23.90;;
30133;SDS011;16946;49.984;10.672;2022-08-19T02:49:04;27.13;;;24.33;;
30133;SDS011;16946;49.984;10.672;2022-08-19T02:49:37;25.60;;;23.05;;
30133;SDS011;16946;49.984;10.672;2022-08-19T02:50:07;26.67;;;23.90;;
30133;SDS011;16946;49.984;10.672;2022-08-19T02:50:39;26.38;;;23.80;;
30133;SDS011;16946;49.984;10.672;2022-08-19T02:51:14;26.10;;;23.40;;
30133;SDS011;16946;49.984;10.672;2022-08-19T02:51:46;25.33;;;22.83;;
30133;SDS011;16946;49.984;10.672;2022-08-19T02:52:17;25.63;;;23.07;;
30133;SDS011;16946;49.984;10.672;2022-08-19T02:52:47;25.67;;;23.07;;
30133;SDS011;16946;49.984;10.672;2022-08-19T02:53:18;27.20;;;24.50;;
30133;SDS011;16946;49.984;10.672;2022-08-19T02:53:48;24.20;;;21.97;;
30133;SDS011;16946;49.984;10.672;2022-08-19T02:54:19;23.67;;;21.27;;
30133;SDS011;16946;49.984;10.672;2022-08-19T02:54:50;24.53;;;21.70;;
30133;SDS011;16946;49.984;10.672;2022-08-19T02:55:20;25.10;;;22.63;;
30133;SDS011;16946;49.984;10.672;2022-08-19T02:55:51;27.27;;;24.47;;
30133;SDS011;16946;49.984;10.672;2022-08-19T02:56:22;25.08;;;22.52;;
30133;SDS011;16946;49.984;10.672;2022-08-19T02:56:55;24.65;;;22.35;;
30133;SDS011;16946;49.984;10.672;2022-08-19T02:57:26;25.67;;;23.10;;
30133;SDS011;16946;49.984;10.672;2022-08-19T02:57:57;26.25;;;23.67;;
30133;SDS011;16946;49.984;10.672;2022-08-19T02:58:27;26.40;;;23.70;;
30133;SDS011;16946;49.984;10.672;2022-08-19T02:58:58;24.63;;;22.33;;
30133;SDS011;16946;49.984;10.672;2022-08-19T02:59:29;26.83;;;24.20;;
30133;SDS011;16946;49.984;10.672;2022-08-19T03:00:00;25.70;;;23.10;;
30133;SDS011;16946;49.984;10.672;2022-08-19T03:00:33;25.58;;;23.08;;
30133;SDS011;16946;49.984;10.672;2022-08-19T03:01:04;26.17;;;23.50;;
30133;SDS011;16946;49.984;10.672;2022-08-19T03:01:34;24.60;;;22.03;;
30133;SDS011;16946;49.984;10.672;2022-08-19T03:02:05;26.20;;;23.60;;
30133;SDS011;16946;49.984;10.672;2022-08-19T03:02:35;25.17;;;22.67;;
30133;SDS011;16946;49.984;10.672;2022-08-19T03:03:06;25.20;;;22.80;;
30133;SDS011;16946;49.984;10.672;2022-08-19T03:03:37;24.37;;;21.90;;
30133;SDS011;16946;49.984;10.672;2022-08-19T03:04:08;22.77;;;20.48;;
30133;SDS011;16946;49.984;10.672;2022-08-19T03:04:40;22.50;;;20.30;;
30133;SDS011;16946;49.984;10.672;2022-08-19T03:05:11;24.38;;;21.90;;